Wetterdaten: Donnerstag, 07.06.2012
Datum Zeit Temperatur Luftfeuchte Regen Wind Richtung Richtung Taupunkt Windchill Windben
07.06.2012 00:00 13,4 C 79 % 0,0 l/m 0,6 km/h (0 Bft) N 360 9,8 C 13,3 C 2,1 km/h (1 Bft)
07.06.2012 00:05 13,2 C 79 % 0,0 l/m 0,6 km/h (0 Bft) N-NO 22 9,6 C 13,2 C 0,0 km/h (0 Bft)
07.06.2012 00:10 13,1 C 80 % 0,0 l/m 0,3 km/h (0 Bft) N 360 9,7 C 13,1 C 0,0 km/h (0 Bft)
07.06.2012 00:15 13,1 C 80 % 0,0 l/m 0,5 km/h (0 Bft) N 360 9,7 C 13,1 C 0,0 km/h (0 Bft)
07.06.2012 00:20 13,1 C 80 % 0,0 l/m 0,5 km/h (0 Bft) N-NW 337 9,7 C 13,1 C 0,0 km/h (0 Bft)
07.06.2012 00:25 13,0 C 80 % 0,0 l/m 0,3 km/h (0 Bft) NO 45 9,6 C 13,0 C 0,0 km/h (0 Bft)
07.06.2012 00:30 12,9 C 82 % 0,0 l/m 0,2 km/h (0 Bft) NO 45 9,9 C 12,9 C 0,0 km/h (0 Bft)
07.06.2012 00:35 12,8 C 83 % 0,0 l/m 0,6 km/h (0 Bft) NO 45 10,0 C 12,9 C 0,0 km/h (0 Bft)
07.06.2012 00:40 12,7 C 83 % 0,0 l/m 0,6 km/h (0 Bft) N 360 9,9 C 12,9 C 4,0 km/h (1 Bft)
07.06.2012 00:45 12,7 C 83 % 0,0 l/m 0,3 km/h (0 Bft) N 360 9,9 C 12,8 C 0,0 km/h (0 Bft)
07.06.2012 00:50 12,6 C 83 % 0,0 l/m 0,3 km/h (0 Bft) N-NO 22 9,8 C 12,7 C 1,9 km/h (1 Bft)
07.06.2012 00:55 12,5 C 84 % 0,0 l/m 0,2 km/h (0 Bft) O-SO 112 9,9 C 12,6 C 0,0 km/h (0 Bft)
07.06.2012 01:00 12,3 C 84 % 0,0 l/m 0,2 km/h (0 Bft) NW 315 9,7 C 12,4 C 0,0 km/h (0 Bft)
07.06.2012 01:05 12,0 C 84 % 0,0 l/m 0,2 km/h (0 Bft) N-NO 22 9,4 C 12,1 C 1,6 km/h (1 Bft)
07.06.2012 01:10 11,7 C 85 % 0,0 l/m 0,6 km/h (0 Bft) N 360 9,3 C 11,7 C 3,4 km/h (1 Bft)
07.06.2012 01:15 11,5 C 85 % 0,0 l/m 1,0 km/h (0 Bft) N-NW 337 9,1 C 11,5 C 0,0 km/h (0 Bft)
07.06.2012 01:20 11,1 C 85 % 0,0 l/m 0,6 km/h (0 Bft) S 180 8,7 C 11,2 C 1,6 km/h (1 Bft)
07.06.2012 01:25 11,2 C 86 % 0,0 l/m 0,0 km/h (0 Bft) N-NO 22 8,9 C 11,2 C 0,0 km/h (0 Bft)
07.06.2012 01:30 11,1 C 86 % 0,0 l/m 0,0 km/h (0 Bft) N 360 8,8 C 11,0 C 0,0 km/h (0 Bft)
07.06.2012 01:35 11,1 C 86 % 0,0 l/m 0,0 km/h (0 Bft) NO 45 8,8 C 10,9 C 0,0 km/h (0 Bft)
07.06.2012 01:40 10,8 C 86 % 0,0 l/m 0,0 km/h (0 Bft) N-NO 22 8,6 C 10,7 C 0,0 km/h (0 Bft)
07.06.2012 01:45 10,9 C 87 % 0,0 l/m 0,0 km/h (0 Bft) W-NW 292 8,8 C 10,8 C 0,0 km/h (0 Bft)
07.06.2012 01:50 10,7 C 87 % 0,0 l/m 0,0 km/h (0 Bft) S 180 8,6 C 10,7 C 0,0 km/h (0 Bft)
07.06.2012 01:55 10,6 C 87 % 0,0 l/m 0,0 km/h (0 Bft) N-NO 22 8,5 C 10,5 C 0,0 km/h (0 Bft)
07.06.2012 02:00 10,4 C 88 % 0,0 l/m 0,2 km/h (0 Bft) S-SW 202 8,5 C 10,4 C 0,0 km/h (0 Bft)
07.06.2012 02:05 10,4 C 88 % 0,0 l/m 0,2 km/h (0 Bft) S-SW 202 8,5 C 10,4 C 0,0 km/h (0 Bft)
07.06.2012 02:10 10,4 C 88 % 0,0 l/m 0,2 km/h (0 Bft) S-SO 157 8,5 C 10,4 C 0,0 km/h (0 Bft)
07.06.2012 02:15 10,3 C 88 % 0,0 l/m 0,0 km/h (0 Bft) N-NO 22 8,4 C 10,3 C 0,0 km/h (0 Bft)
07.06.2012 02:20 10,2 C 88 % 0,0 l/m 0,0 km/h (0 Bft) S-SW 202 8,3 C 10,3 C 0,0 km/h (0 Bft)
07.06.2012 02:25 10,3 C 89 % 0,0 l/m 0,0 km/h (0 Bft) NO 45 8,6 C 10,3 C 0,0 km/h (0 Bft)
07.06.2012 02:30 10,5 C 89 % 0,0 l/m 0,0 km/h (0 Bft) O 90 8,8 C 10,3 C 0,0 km/h (0 Bft)
07.06.2012 02:35 10,5 C 89 % 0,0 l/m 0,0 km/h (0 Bft) N-NW 337 8,8 C 10,3 C 0,0 km/h (0 Bft)
07.06.2012 02:40 10,3 C 89 % 0,0 l/m 0,0 km/h (0 Bft) S-SW 202 8,6 C 10,3 C 0,0 km/h (0 Bft)
07.06.2012 02:45 10,4 C 89 % 0,0 l/m 0,0 km/h (0 Bft) N-NO 22 8,7 C 10,3 C 0,0 km/h (0 Bft)
07.06.2012 02:50 10,5 C 89 % 0,0 l/m 0,0 km/h (0 Bft) S 180 8,8 C 10,3 C 0,0 km/h (0 Bft)
07.06.2012 02:55 10,5 C 89 % 0,0 l/m 0,0 km/h (0 Bft) S 180 8,8 C 10,3 C 0,0 km/h (0 Bft)
07.06.2012 03:00 10,5 C 89 % 0,0 l/m 0,0 km/h (0 Bft) O-SO 112 8,8 C 10,3 C 0,0 km/h (0 Bft)
07.06.2012 03:05 10,5 C 89 % 0,0 l/m 0,0 km/h (0 Bft) O-SO 112 8,8 C 10,3 C 0,0 km/h (0 Bft)
07.06.2012 03:10 10,6 C 90 % 0,0 l/m 0,0 km/h (0 Bft) W-NW 292 9,0 C 10,3 C 0,0 km/h (0 Bft)
07.06.2012 03:15 10,7 C 90 % 0,0 l/m 0,0 km/h (0 Bft) O 90 9,1 C 10,4 C 0,0 km/h (0 Bft)
07.06.2012 03:20 10,9 C 90 % 0,0 l/m 0,6 km/h (0 Bft) SO 135 9,3 C 10,5 C 3,9 km/h (1 Bft)
07.06.2012 03:25 11,0 C 90 % 0,0 l/m 1,1 km/h (1 Bft) W-NW 292 9,4 C 10,7 C 0,0 km/h (0 Bft)
07.06.2012 03:30 10,9 C 90 % 0,0 l/m 0,6 km/h (0 Bft) O-SO 112 9,3 C 10,7 C 0,0 km/h (0 Bft)
07.06.2012 03:35 10,9 C 90 % 0,0 l/m 0,0 km/h (0 Bft) S 180 9,3 C 10,7 C 1,8 km/h (1 Bft)
07.06.2012 03:40 11,0 C 90 % 0,0 l/m 0,3 km/h (0 Bft) NO 45 9,4 C 10,8 C 0,0 km/h (0 Bft)
07.06.2012 03:45 11,0 C 90 % 0,0 l/m 0,3 km/h (0 Bft) SO 135 9,4 C 10,9 C 0,0 km/h (0 Bft)
07.06.2012 03:50 11,0 C 90 % 0,0 l/m 0,2 km/h (0 Bft) SO 135 9,4 C 10,9 C 0,0 km/h (0 Bft)
07.06.2012 03:55 11,0 C 90 % 0,0 l/m 0,3 km/h (0 Bft) O-SO 112 9,4 C 11,0 C 0,0 km/h (0 Bft)
07.06.2012 04:00 11,0 C 90 % 0,0 l/m 0,5 km/h (0 Bft) S-SO 157 9,4 C 11,0 C 3,7 km/h (1 Bft)
07.06.2012 04:05 11,1 C 90 % 0,0 l/m 0,8 km/h (0 Bft) S-SO 157 9,5 C 11,1 C 2,9 km/h (1 Bft)
07.06.2012 04:10 11,2 C 90 % 0,0 l/m 0,6 km/h (0 Bft) N-NO 22 9,6 C 11,2 C 0,0 km/h (0 Bft)
07.06.2012 04:15 11,2 C 90 % 0,0 l/m 0,3 km/h (0 Bft) W-SW 247 9,6 C 11,2 C 0,0 km/h (0 Bft)
07.06.2012 04:20 11,2 C 90 % 0,0 l/m 0,0 km/h (0 Bft) N-NO 22 9,6 C 11,2 C 0,0 km/h (0 Bft)
07.06.2012 04:25 11,2 C 90 % 0,0 l/m 0,5 km/h (0 Bft) S-SO 157 9,6 C 11,2 C 1,9 km/h (1 Bft)
07.06.2012 04:30 11,4 C 90 % 0,0 l/m 1,0 km/h (0 Bft) S 180 9,8 C 11,2 C 1,8 km/h (1 Bft)
07.06.2012 04:35 11,4 C 90 % 0,0 l/m 0,6 km/h (0 Bft) O-SO 112 9,8 C 11,2 C 0,0 km/h (0 Bft)
07.06.2012 04:40 11,3 C 90 % 0,0 l/m 1,0 km/h (0 Bft) N-NO 22 9,7 C 11,2 C 0,0 km/h (0 Bft)
07.06.2012 04:45 11,3 C 90 % 0,0 l/m 0,8 km/h (0 Bft) NO 45 9,7 C 11,2 C 0,0 km/h (0 Bft)
07.06.2012 04:50 11,3 C 89 % 0,7 l/m 0,0 km/h (0 Bft) SW 225 9,6 C 11,1 C 0,0 km/h (0 Bft)
07.06.2012 04:55 11,2 C 89 % 0,0 l/m 0,0 km/h (0 Bft) N-NW 337 9,5 C 11,0 C 0,0 km/h (0 Bft)
07.06.2012 05:00 11,1 C 90 % 0,0 l/m 0,2 km/h (0 Bft) S 180 9,5 C 11,0 C 0,0 km/h (0 Bft)
07.06.2012 05:05 11,1 C 90 % 0,0 l/m 0,2 km/h (0 Bft) N-NO 22 9,5 C 10,9 C 0,0 km/h (0 Bft)
07.06.2012 05:10 11,2 C 91 % 0,0 l/m 0,6 km/h (0 Bft) N 360 9,8 C 10,9 C 6,9 km/h (2 Bft)
07.06.2012 05:15 11,2 C 91 % 0,0 l/m 1,4 km/h (1 Bft) N-NO 22 9,8 C 11,0 C 0,0 km/h (0 Bft)
07.06.2012 05:20 11,1 C 91 % 0,0 l/m 1,6 km/h (1 Bft) NO 45 9,7 C 11,0 C 0,0 km/h (0 Bft)
07.06.2012 05:25 11,1 C 91 % 0,0 l/m 0,6 km/h (0 Bft) N-NO 22 9,7 C 10,9 C 0,0 km/h (0 Bft)
07.06.2012 05:30 11,1 C 91 % 0,0 l/m 0,2 km/h (0 Bft) W 270 9,7 C 10,9 C 0,0 km/h (0 Bft)
07.06.2012 05:35 11,1 C 91 % 0,0 l/m 0,2 km/h (0 Bft) N-NW 337 9,7 C 10,9 C 0,0 km/h (0 Bft)
07.06.2012 05:40 11,0 C 92 % 0,0 l/m 0,3 km/h (0 Bft) O-NO 67 9,8 C 11,0 C 0,0 km/h (0 Bft)
07.06.2012 05:45 11,0 C 92 % 0,0 l/m 0,3 km/h (0 Bft) O 90 9,8 C 11,0 C 0,0 km/h (0 Bft)
07.06.2012 05:50 11,0 C 92 % 0,0 l/m 0,2 km/h (0 Bft) S-SO 157 9,8 C 10,9 C 0,0 km/h (0 Bft)
07.06.2012 05:55 11,0 C 92 % 0,0 l/m 0,2 km/h (0 Bft) O 90 9,8 C 11,0 C 0,0 km/h (0 Bft)
07.06.2012 06:00 11,1 C 92 % 0,0 l/m 0,0 km/h (0 Bft) O-SO 112 9,8 C 11,0 C 0,0 km/h (0 Bft)
07.06.2012 06:05 11,2 C 92 % 0,0 l/m 0,0 km/h (0 Bft) SO 135 9,9 C 11,0 C 0,0 km/h (0 Bft)
07.06.2012 06:10 11,2 C 92 % 0,0 l/m 0,0 km/h (0 Bft) S 180 9,9 C 11,1 C 0,0 km/h (0 Bft)
07.06.2012 06:15 11,3 C 92 % 0,0 l/m 0,0 km/h (0 Bft) N-NO 22 10,0 C 11,2 C 0,0 km/h (0 Bft)
07.06.2012 06:20 11,5 C 92 % 0,0 l/m 0,2 km/h (0 Bft) S 180 10,2 C 11,4 C 0,0 km/h (0 Bft)
07.06.2012 06:25 11,6 C 92 % 0,0 l/m 0,2 km/h (0 Bft) S 180 10,3 C 11,5 C 0,0 km/h (0 Bft)
07.06.2012 06:30 11,7 C 92 % 0,0 l/m 0,0 km/h (0 Bft) S 180 10,4 C 11,7 C 0,0 km/h (0 Bft)
07.06.2012 06:35 11,8 C 92 % 0,0 l/m 0,0 km/h (0 Bft) S-SO 157 10,5 C 11,8 C 0,0 km/h (0 Bft)
07.06.2012 06:40 12,0 C 92 % 0,0 l/m 0,2 km/h (0 Bft) W-NW 292 10,7 C 12,0 C 0,0 km/h (0 Bft)
07.06.2012 06:45 12,1 C 92 % 0,0 l/m 0,2 km/h (0 Bft) S-SO 157 10,8 C 12,0 C 0,0 km/h (0 Bft)
07.06.2012 06:50 12,2 C 92 % 0,0 l/m 0,3 km/h (0 Bft) SO 135 10,9 C 12,2 C 2,6 km/h (1 Bft)
07.06.2012 06:55 12,4 C 92 % 0,0 l/m 0,8 km/h (0 Bft) O-SO 112 11,1 C 12,3 C 0,0 km/h (0 Bft)
07.06.2012 07:00 12,6 C 92 % 0,0 l/m 0,8 km/h (0 Bft) O-SO 112 11,3 C 12,5 C 2,1 km/h (1 Bft)
07.06.2012 07:05 12,7 C 91 % 0,0 l/m 0,0 km/h (0 Bft) S-SO 157 11,3 C 12,8 C 0,0 km/h (0 Bft)
07.06.2012 07:10 13,1 C 90 % 0,0 l/m 0,2 km/h (0 Bft) NO 45 11,5 C 13,1 C 0,0 km/h (0 Bft)
07.06.2012 07:15 13,2 C 89 % 0,0 l/m 0,0 km/h (0 Bft) W 270 11,4 C 13,4 C 0,0 km/h (0 Bft)
07.06.2012 07:20 13,5 C 89 % 0,0 l/m 0,0 km/h (0 Bft) SO 135 11,7 C 13,6 C 0,0 km/h (0 Bft)
07.06.2012 07:25 13,7 C 89 % 0,0 l/m 0,2 km/h (0 Bft) W-NW 292 11,9 C 13,9 C 0,0 km/h (0 Bft)
07.06.2012 07:30 13,8 C 88 % 0,0 l/m 0,3 km/h (0 Bft) N-NO 22 11,8 C 14,1 C 0,0 km/h (0 Bft)
07.06.2012 07:35 14,3 C 88 % 0,0 l/m 0,3 km/h (0 Bft) W-SW 247 12,3 C 14,2 C 0,0 km/h (0 Bft)
07.06.2012 07:40 15,6 C 86 % 0,0 l/m 0,2 km/h (0 Bft) W-SW 247 13,3 C 15,3 C 0,0 km/h (0 Bft)
07.06.2012 07:45 15,5 C 85 % 0,0 l/m 0,0 km/h (0 Bft) W-NW 292 13,0 C 15,9 C 0,0 km/h (0 Bft)
07.06.2012 07:50 15,7 C 81 % 0,0 l/m 0,0 km/h (0 Bft) S-SW 202 12,4 C 16,5 C 0,0 km/h (0 Bft)
07.06.2012 07:55 15,5 C 82 % 0,0 l/m 0,2 km/h (0 Bft) N-NO 22 12,4 C 16,4 C 0,0 km/h (0 Bft)
07.06.2012 08:00 16,0 C 81 % 0,0 l/m 0,6 km/h (0 Bft) S 180 12,7 C 16,6 C 0,0 km/h (0 Bft)
07.06.2012 08:05 16,5 C 81 % 0,0 l/m 0,8 km/h (0 Bft) W-SW 247 13,2 C 17,0 C 0,0 km/h (0 Bft)
07.06.2012 08:10 16,7 C 80 % 0,0 l/m 0,8 km/h (0 Bft) N 360 13,2 C 17,4 C 2,4 km/h (1 Bft)
07.06.2012 08:15 16,7 C 79 % 0,0 l/m 1,3 km/h (1 Bft) W 270 13,0 C 17,6 C 2,6 km/h (1 Bft)
07.06.2012 08:20 17,1 C 77 % 0,0 l/m 1,1 km/h (1 Bft) S 180 13,0 C 17,9 C 1,8 km/h (1 Bft)
07.06.2012 08:25 17,7 C 77 % 0,0 l/m 1,1 km/h (1 Bft) S-SW 202 13,7 C 18,4 C 1,8 km/h (1 Bft)
07.06.2012 08:30 17,9 C 78 % 0,0 l/m 1,1 km/h (1 Bft) W-SW 247 14,4 C 18,9 C 2,7 km/h (1 Bft)
07.06.2012 08:35 18,2 C 75 % 0,0 l/m 1,9 km/h (1 Bft) W-SW 247 14,1 C 19,2 C 2,6 km/h (1 Bft)
07.06.2012 08:40 18,5 C 74 % 0,0 l/m 1,8 km/h (1 Bft) W-SW 247 15,0 C 19,8 C 1,6 km/h (1 Bft)
07.06.2012 08:45 18,9 C 69 % 0,0 l/m 1,3 km/h (1 Bft) W-NW 292 13,7 C 20,8 C 1,6 km/h (1 Bft)
07.06.2012 08:50 19,3 C 70 % 0,0 l/m 1,3 km/h (1 Bft) S-SW 202 14,5 C 22,0 C 4,5 km/h (1 Bft)
07.06.2012 08:55 19,0 C 72 % 0,0 l/m 2,1 km/h (1 Bft) W-SW 247 13,9 C 21,5 C 4,8 km/h (1 Bft)
07.06.2012 09:00 18,5 C 75 % 0,0 l/m 3,4 km/h (1 Bft) W-NW 292 14,0 C 20,3 C 3,7 km/h (1 Bft)
07.06.2012 09:05 18,6 C 73 % 0,0 l/m 2,7 km/h (1 Bft) SW 225 13,7 C 20,0 C 3,4 km/h (1 Bft)
07.06.2012 09:10 19,1 C 74 % 0,0 l/m 2,6 km/h (1 Bft) SW 225 14,4 C 20,1 C 3,4 km/h (1 Bft)
07.06.2012 09:15 19,3 C 69 % 0,0 l/m 2,4 km/h (1 Bft) N-NO 22 13,8 C 20,3 C 0,0 km/h (0 Bft)
07.06.2012 09:20 19,6 C 69 % 0,0 l/m 1,9 km/h (1 Bft) S-SW 202 14,0 C 21,1 C 4,8 km/h (1 Bft)
07.06.2012 09:25 19,8 C 69 % 0,0 l/m 2,3 km/h (1 Bft) W 270 14,0 C 21,3 C 3,2 km/h (1 Bft)
07.06.2012 09:30 19,9 C 68 % 0,0 l/m 2,9 km/h (1 Bft) S 180 13,8 C 21,3 C 0,0 km/h (0 Bft)
07.06.2012 09:35 19,5 C 68 % 0,0 l/m 2,9 km/h (1 Bft) NO 45 13,4 C 21,5 C 4,8 km/h (1 Bft)
07.06.2012 09:40 19,7 C 64 % 0,0 l/m 2,9 km/h (1 Bft) W-SW 247 12,7 C 21,1 C 3,2 km/h (1 Bft)
07.06.2012 09:45 19,7 C 66 % 0,0 l/m 3,7 km/h (1 Bft) W-NW 292 13,2 C 21,0 C 6,0 km/h (2 Bft)
07.06.2012 09:50 20,6 C 64 % 0,0 l/m 2,9 km/h (1 Bft) W-NW 292 14,4 C 21,6 C 7,6 km/h (2 Bft)
07.06.2012 09:55 21,1 C 58 % 0,0 l/m 2,9 km/h (1 Bft) W-NW 292 13,8 C 23,2 C 4,7 km/h (1 Bft)
07.06.2012 10:00 19,7 C 59 % 0,0 l/m 3,5 km/h (1 Bft) W-NW 292 11,5 C 22,8 C 8,0 km/h (2 Bft)
07.06.2012 10:05 20,7 C 60 % 0,0 l/m 3,2 km/h (1 Bft) S-SW 202 12,9 C 22,3 C 2,4 km/h (1 Bft)
07.06.2012 10:10 21,5 C 56 % 0,0 l/m 2,9 km/h (1 Bft) W-NW 292 13,6 C 23,3 C 6,4 km/h (2 Bft)
07.06.2012 10:15 21,6 C 55 % 0,0 l/m 3,4 km/h (1 Bft) W-SW 247 13,1 C 24,3 C 6,0 km/h (2 Bft)
07.06.2012 10:20 21,6 C 55 % 0,0 l/m 3,7 km/h (1 Bft) S 180 12,5 C 24,5 C 4,2 km/h (1 Bft)
07.06.2012 10:25 21,4 C 54 % 0,0 l/m 4,0 km/h (1 Bft) W 270 11,7 C 24,3 C 4,8 km/h (1 Bft)
07.06.2012 10:30 21,7 C 55 % 0,0 l/m 3,9 km/h (1 Bft) W-NW 292 12,7 C 24,0 C 9,3 km/h (2 Bft)
07.06.2012 10:35 21,1 C 54 % 0,0 l/m 4,2 km/h (1 Bft) W 270 11,4 C 23,8 C 7,9 km/h (2 Bft)
07.06.2012 10:40 21,7 C 54 % 0,0 l/m 4,2 km/h (1 Bft) NW 315 12,0 C 23,4 C 10,1 km/h (2 Bft)
07.06.2012 10:45 21,1 C 53 % 0,0 l/m 4,0 km/h (1 Bft) NW 315 11,1 C 23,4 C 4,5 km/h (1 Bft)
07.06.2012 10:50 21,1 C 56 % 0,0 l/m 3,2 km/h (1 Bft) SO 135 12,0 C 22,8 C 3,4 km/h (1 Bft)
07.06.2012 10:55 22,6 C 55 % 0,0 l/m 2,4 km/h (1 Bft) N-NW 337 13,4 C 23,7 C 2,6 km/h (1 Bft)
07.06.2012 11:00 23,0 C 52 % 0,0 l/m 2,3 km/h (1 Bft) W-NW 292 12,8 C 24,9 C 5,6 km/h (1 Bft)
07.06.2012 11:05 21,6 C 52 % 0,0 l/m 3,7 km/h (1 Bft) W-SW 247 11,3 C 24,3 C 4,5 km/h (1 Bft)
07.06.2012 11:10 20,7 C 54 % 0,0 l/m 4,3 km/h (1 Bft) NO 45 11,1 C 22,6 C 0,0 km/h (0 Bft)
07.06.2012 11:15 21,7 C 53 % 0,0 l/m 3,4 km/h (1 Bft) S 180 11,7 C 22,6 C 2,9 km/h (1 Bft)
07.06.2012 11:20 22,9 C 52 % 0,0 l/m 2,9 km/h (1 Bft) W-SW 247 12,5 C 24,1 C 5,8 km/h (2 Bft)
07.06.2012 11:25 23,3 C 51 % 0,0 l/m 3,2 km/h (1 Bft) W 270 12,6 C 25,1 C 2,6 km/h (1 Bft)
07.06.2012 11:30 21,0 C 54 % 0,0 l/m 3,7 km/h (1 Bft) W-NW 292 11,3 C 23,8 C 6,1 km/h (2 Bft)
07.06.2012 11:35 20,6 C 55 % 0,0 l/m 3,5 km/h (1 Bft) N-NW 337 11,2 C 22,8 C 3,1 km/h (1 Bft)
07.06.2012 11:40 21,5 C 55 % 0,0 l/m 2,4 km/h (1 Bft) W-NW 292 12,1 C 23,0 C 5,3 km/h (1 Bft)
07.06.2012 11:45 22,8 C 54 % 0,0 l/m 1,8 km/h (1 Bft) N 360 13,0 C 23,5 C 2,1 km/h (1 Bft)
07.06.2012 11:50 23,0 C 47 % 0,0 l/m 3,5 km/h (1 Bft) W-NW 292 11,1 C 24,9 C 7,1 km/h (2 Bft)
07.06.2012 11:55 23,4 C 47 % 0,0 l/m 4,2 km/h (1 Bft) S 180 11,4 C 25,0 C 3,2 km/h (1 Bft)
07.06.2012 12:00 23,0 C 50 % 0,0 l/m 3,4 km/h (1 Bft) SW 225 12,0 C 25,0 C 1,6 km/h (1 Bft)
07.06.2012 12:05 23,6 C 50 % 0,0 l/m 2,9 km/h (1 Bft) W-SW 247 12,6 C 25,0 C 3,2 km/h (1 Bft)
07.06.2012 12:10 23,0 C 48 % 0,0 l/m 3,2 km/h (1 Bft) S-SW 202 11,4 C 25,0 C 3,9 km/h (1 Bft)
07.06.2012 12:15 22,4 C 48 % 0,0 l/m 3,4 km/h (1 Bft) NW 315 10,8 C 24,8 C 3,2 km/h (1 Bft)
07.06.2012 12:20 22,4 C 49 % 0,0 l/m 3,2 km/h (1 Bft) W 270 11,2 C 24,6 C 4,3 km/h (1 Bft)
07.06.2012 12:25 22,2 C 51 % 0,0 l/m 2,9 km/h (1 Bft) W 270 11,6 C 24,6 C 4,8 km/h (1 Bft)
07.06.2012 12:30 22,9 C 55 % 0,0 l/m 2,3 km/h (1 Bft) N-NW 337 13,4 C 24,8 C 4,2 km/h (1 Bft)
07.06.2012 12:35 23,8 C 49 % 0,0 l/m 3,7 km/h (1 Bft) N-NW 337 12,4 C 25,2 C 5,0 km/h (1 Bft)
07.06.2012 12:40 24,3 C 47 % 0,0 l/m 5,8 km/h (2 Bft) O-NO 67 12,3 C 26,0 C 12,6 km/h (3 Bft)
07.06.2012 12:45 24,1 C 47 % 0,0 l/m 5,5 km/h (1 Bft) W-NW 292 12,1 C 26,6 C 5,6 km/h (1 Bft)
07.06.2012 12:50 23,4 C 47 % 0,0 l/m 4,5 km/h (1 Bft) S-SW 202 11,4 C 26,4 C 5,8 km/h (2 Bft)
07.06.2012 12:55 24,4 C 44 % 0,0 l/m 4,5 km/h (1 Bft) W-NW 292 11,3 C 26,5 C 9,8 km/h (2 Bft)
07.06.2012 13:00 24,3 C 45 % 0,0 l/m 4,8 km/h (1 Bft) W-NW 292 11,6 C 26,4 C 5,0 km/h (1 Bft)
07.06.2012 13:05 23,5 C 45 % 0,0 l/m 5,8 km/h (2 Bft) W-NW 292 10,9 C 26,1 C 6,1 km/h (2 Bft)
07.06.2012 13:10 23,6 C 45 % 0,0 l/m 5,5 km/h (1 Bft) W-NW 292 11,0 C 26,0 C 7,4 km/h (2 Bft)
07.06.2012 13:15 22,9 C 48 % 0,0 l/m 5,3 km/h (1 Bft) W-NW 292 11,3 C 25,7 C 6,9 km/h (2 Bft)
07.06.2012 13:20 23,7 C 47 % 0,0 l/m 5,3 km/h (1 Bft) N 360 11,7 C 25,7 C 5,8 km/h (2 Bft)
07.06.2012 13:25 23,8 C 47 % 0,0 l/m 4,0 km/h (1 Bft) N-NW 337 11,8 C 26,1 C 8,7 km/h (2 Bft)
07.06.2012 13:30 23,2 C 48 % 0,0 l/m 4,0 km/h (1 Bft) W 270 11,6 C 26,2 C 1,9 km/h (1 Bft)
07.06.2012 13:35 23,4 C 49 % 0,0 l/m 3,5 km/h (1 Bft) W 270 12,1 C 26,1 C 8,7 km/h (2 Bft)
07.06.2012 13:40 22,9 C 51 % 0,0 l/m 1,6 km/h (1 Bft) N 360 12,2 C 25,8 C 0,0 km/h (0 Bft)
07.06.2012 13:45 22,4 C 54 % 0,0 l/m 1,9 km/h (1 Bft) W 270 12,6 C 25,6 C 4,7 km/h (1 Bft)
07.06.2012 13:50 22,4 C 55 % 0,0 l/m 2,9 km/h (1 Bft) S-SW 202 12,9 C 24,5 C 5,3 km/h (1 Bft)
07.06.2012 13:55 22,9 C 54 % 0,0 l/m 3,2 km/h (1 Bft) S-SW 202 13,1 C 24,3 C 4,0 km/h (1 Bft)
07.06.2012 14:00 23,2 C 50 % 0,0 l/m 3,9 km/h (1 Bft) W 270 12,2 C 24,5 C 4,5 km/h (1 Bft)
07.06.2012 14:05 23,4 C 50 % 0,0 l/m 4,0 km/h (1 Bft) S-SW 202 12,4 C 24,8 C 7,4 km/h (2 Bft)
07.06.2012 14:10 23,6 C 50 % 0,0 l/m 3,9 km/h (1 Bft) S 180 12,6 C 25,3 C 2,3 km/h (1 Bft)
07.06.2012 14:15 25,2 C 51 % 0,0 l/m 4,5 km/h (1 Bft) S 180 14,3 C 25,9 C 5,3 km/h (1 Bft)
07.06.2012 14:20 24,1 C 46 % 0,0 l/m 5,5 km/h (1 Bft) W-SW 247 11,7 C 26,6 C 7,9 km/h (2 Bft)
07.06.2012 14:25 23,9 C 50 % 0,0 l/m 6,1 km/h (2 Bft) S-SW 202 12,8 C 26,0 C 10,3 km/h (2 Bft)
07.06.2012 14:30 23,6 C 50 % 0,0 l/m 4,8 km/h (1 Bft) O-NO 67 12,6 C 25,5 C 3,9 km/h (1 Bft)
07.06.2012 14:35 24,0 C 51 % 0,0 l/m 4,0 km/h (1 Bft) W-SW 247 13,2 C 25,3 C 4,2 km/h (1 Bft)
07.06.2012 14:40 23,4 C 52 % 0,0 l/m 4,2 km/h (1 Bft) NW 315 13,0 C 25,3 C 4,8 km/h (1 Bft)
07.06.2012 14:45 24,3 C 49 % 0,0 l/m 3,9 km/h (1 Bft) W-NW 292 12,9 C 25,3 C 3,4 km/h (1 Bft)
07.06.2012 14:50 24,7 C 48 % 0,0 l/m 3,9 km/h (1 Bft) W-NW 292 12,9 C 26,3 C 9,5 km/h (2 Bft)
07.06.2012 14:55 24,6 C 50 % 0,0 l/m 4,7 km/h (1 Bft) W-SW 247 13,5 C 26,5 C 7,6 km/h (2 Bft)
07.06.2012 15:00 24,9 C 48 % 0,0 l/m 4,5 km/h (1 Bft) W-NW 292 13,1 C 26,6 C 6,1 km/h (2 Bft)
07.06.2012 15:05 24,6 C 48 % 0,0 l/m 4,0 km/h (1 Bft) N-NW 337 12,8 C 26,9 C 6,3 km/h (2 Bft)
07.06.2012 15:10 24,7 C 47 % 0,0 l/m 5,0 km/h (1 Bft) NW 315 12,6 C 26,7 C 13,8 km/h (3 Bft)
07.06.2012 15:15 24,3 C 48 % 0,0 l/m 5,1 km/h (1 Bft) S-SW 202 12,6 C 26,7 C 4,7 km/h (1 Bft)
07.06.2012 15:20 25,0 C 48 % 0,0 l/m 4,8 km/h (1 Bft) W-SW 247 13,2 C 26,7 C 6,1 km/h (2 Bft)
07.06.2012 15:25 24,8 C 49 % 0,0 l/m 5,1 km/h (1 Bft) S-SW 202 13,3 C 27,0 C 7,4 km/h (2 Bft)
07.06.2012 15:30 25,1 C 48 % 0,0 l/m 4,5 km/h (1 Bft) SO 135 13,3 C 27,4 C 2,9 km/h (1 Bft)
07.06.2012 15:35 25,3 C 48 % 0,0 l/m 3,9 km/h (1 Bft) W-SW 247 13,5 C 27,6 C 4,5 km/h (1 Bft)
07.06.2012 15:40 25,4 C 48 % 0,0 l/m 4,8 km/h (1 Bft) O 90 13,6 C 27,8 C 15,4 km/h (3 Bft)
07.06.2012 15:45 24,8 C 49 % 0,0 l/m 4,3 km/h (1 Bft) W-SW 247 13,3 C 27,8 C 5,0 km/h (1 Bft)
07.06.2012 15:50 25,2 C 47 % 0,0 l/m 5,0 km/h (1 Bft) W-NW 292 13,1 C 27,8 C 8,5 km/h (2 Bft)
07.06.2012 15:55 24,7 C 48 % 0,0 l/m 6,4 km/h (2 Bft) N-NW 337 12,9 C 27,3 C 8,4 km/h (2 Bft)
07.06.2012 16:00 24,5 C 49 % 0,0 l/m 6,9 km/h (2 Bft) W-NW 292 13,1 C 26,8 C 5,3 km/h (1 Bft)
07.06.2012 16:05 25,1 C 49 % 0,0 l/m 6,4 km/h (2 Bft) W-NW 292 13,6 C 26,9 C 5,1 km/h (1 Bft)
07.06.2012 16:10 25,4 C 47 % 0,0 l/m 6,0 km/h (2 Bft) W 270 13,3 C 27,3 C 5,6 km/h (1 Bft)
07.06.2012 16:15 25,4 C 49 % 0,0 l/m 5,6 km/h (1 Bft) N-NW 337 13,9 C 27,7 C 10,1 km/h (2 Bft)
07.06.2012 16:20 24,8 C 48 % 0,0 l/m 6,1 km/h (2 Bft) NW 315 13,0 C 27,3 C 5,6 km/h (1 Bft)
07.06.2012 16:25 24,9 C 49 % 0,0 l/m 7,4 km/h (2 Bft) W 270 13,4 C 26,8 C 12,7 km/h (3 Bft)
07.06.2012 16:30 24,8 C 49 % 0,0 l/m 6,6 km/h (2 Bft) W-NW 292 13,3 C 27,3 C 8,2 km/h (2 Bft)
07.06.2012 16:35 24,7 C 50 % 0,0 l/m 6,8 km/h (2 Bft) NW 315 13,6 C 27,0 C 9,7 km/h (2 Bft)
07.06.2012 16:40 24,5 C 50 % 0,0 l/m 5,5 km/h (1 Bft) N-NW 337 13,4 C 27,5 C 4,2 km/h (1 Bft)
07.06.2012 16:45 23,9 C 51 % 0,0 l/m 5,5 km/h (1 Bft) W-NW 292 13,1 C 27,6 C 6,1 km/h (2 Bft)
07.06.2012 16:50 23,3 C 53 % 0,0 l/m 5,1 km/h (1 Bft) W 270 13,2 C 26,2 C 6,8 km/h (2 Bft)
07.06.2012 16:55 23,7 C 54 % 0,0 l/m 4,7 km/h (1 Bft) W-SW 247 13,8 C 25,8 C 4,0 km/h (1 Bft)
07.06.2012 17:00 23,8 C 52 % 0,0 l/m 5,5 km/h (1 Bft) W 270 13,3 C 26,1 C 8,2 km/h (2 Bft)
07.06.2012 17:05 23,6 C 53 % 0,0 l/m 5,5 km/h (1 Bft) W-NW 292 13,4 C 26,2 C 8,9 km/h (2 Bft)
07.06.2012 17:10 23,8 C 55 % 0,0 l/m 5,3 km/h (1 Bft) W 270 14,2 C 26,1 C 6,3 km/h (2 Bft)
07.06.2012 17:15 23,9 C 53 % 0,0 l/m 5,3 km/h (1 Bft) S-SW 202 13,7 C 26,4 C 6,1 km/h (2 Bft)
07.06.2012 17:20 23,8 C 54 % 0,0 l/m 5,1 km/h (1 Bft) SW 225 13,9 C 27,0 C 5,5 km/h (1 Bft)
07.06.2012 17:25 23,8 C 53 % 0,0 l/m 4,8 km/h (1 Bft) S-SW 202 13,6 C 27,6 C 6,3 km/h (2 Bft)
07.06.2012 17:30 23,7 C 53 % 0,0 l/m 5,3 km/h (1 Bft) W-NW 292 13,5 C 27,8 C 7,9 km/h (2 Bft)
07.06.2012 17:35 23,6 C 55 % 0,0 l/m 5,5 km/h (1 Bft) W 270 14,0 C 27,7 C 6,1 km/h (2 Bft)
07.06.2012 17:40 23,4 C 55 % 0,0 l/m 5,6 km/h (1 Bft) W 270 13,8 C 26,9 C 3,7 km/h (1 Bft)
07.06.2012 17:45 23,4 C 55 % 0,0 l/m 5,5 km/h (1 Bft) W-NW 292 13,8 C 26,4 C 8,0 km/h (2 Bft)
07.06.2012 17:50 23,8 C 54 % 0,0 l/m 5,3 km/h (1 Bft) W-NW 292 13,9 C 26,0 C 6,4 km/h (2 Bft)
07.06.2012 17:55 24,1 C 55 % 0,0 l/m 5,0 km/h (1 Bft) W 270 14,5 C 26,3 C 10,6 km/h (2 Bft)
07.06.2012 18:00 23,8 C 54 % 0,0 l/m 4,7 km/h (1 Bft) SO 135 13,9 C 26,3 C 6,3 km/h (2 Bft)
07.06.2012 18:05 24,1 C 54 % 0,0 l/m 4,3 km/h (1 Bft) S 180 14,2 C 26,1 C 7,7 km/h (2 Bft)
07.06.2012 18:10 23,8 C 55 % 0,0 l/m 4,5 km/h (1 Bft) W-SW 247 14,2 C 26,4 C 4,7 km/h (1 Bft)
07.06.2012 18:15 23,9 C 56 % 0,0 l/m 5,0 km/h (1 Bft) W 270 14,6 C 26,5 C 3,5 km/h (1 Bft)
07.06.2012 18:20 23,7 C 57 % 0,0 l/m 4,2 km/h (1 Bft) W-NW 292 14,7 C 26,4 C 6,8 km/h (2 Bft)
07.06.2012 18:25 23,9 C 57 % 0,0 l/m 3,9 km/h (1 Bft) NW 315 14,9 C 26,4 C 7,1 km/h (2 Bft)
07.06.2012 18:30 24,0 C 55 % 0,0 l/m 4,8 km/h (1 Bft) N-NO 22 14,4 C 26,9 C 8,5 km/h (2 Bft)
07.06.2012 18:35 24,1 C 55 % 0,0 l/m 5,8 km/h (2 Bft) W 270 14,5 C 27,2 C 7,2 km/h (2 Bft)
07.06.2012 18:40 23,7 C 56 % 0,0 l/m 5,6 km/h (1 Bft) W-NW 292 14,4 C 27,0 C 9,5 km/h (2 Bft)
07.06.2012 18:45 23,7 C 56 % 0,0 l/m 5,6 km/h (1 Bft) N-NW 337 14,4 C 26,9 C 6,3 km/h (2 Bft)
07.06.2012 18:50 23,3 C 56 % 0,0 l/m 5,3 km/h (1 Bft) W-NW 292 14,0 C 26,9 C 4,5 km/h (1 Bft)
07.06.2012 18:55 23,2 C 57 % 0,0 l/m 4,3 km/h (1 Bft) NO 45 14,2 C 26,6 C 5,8 km/h (2 Bft)
07.06.2012 19:00 22,9 C 58 % 0,0 l/m 4,2 km/h (1 Bft) N-NO 22 14,2 C 25,9 C 5,8 km/h (2 Bft)
07.06.2012 19:05 22,7 C 58 % 0,0 l/m 4,5 km/h (1 Bft) W-SW 247 14,0 C 25,3 C 5,1 km/h (1 Bft)
07.06.2012 19:10 22,6 C 58 % 0,0 l/m 4,3 km/h (1 Bft) O-NO 67 13,9 C 24,5 C 1,8 km/h (1 Bft)
07.06.2012 19:15 22,4 C 59 % 0,0 l/m 4,2 km/h (1 Bft) W 270 14,0 C 24,1 C 5,5 km/h (1 Bft)
07.06.2012 19:20 22,2 C 59 % 0,0 l/m 3,9 km/h (1 Bft) W 270 13,8 C 23,6 C 2,7 km/h (1 Bft)
07.06.2012 19:25 21,8 C 61 % 0,0 l/m 4,0 km/h (1 Bft) N-NW 337 13,9 C 23,3 C 2,7 km/h (1 Bft)
07.06.2012 19:30 21,5 C 62 % 0,0 l/m 3,1 km/h (1 Bft) W-SW 247 13,9 C 22,6 C 0,0 km/h (0 Bft)
07.06.2012 19:35 21,4 C 62 % 0,0 l/m 2,7 km/h (1 Bft) N-NW 337 13,8 C 22,4 C 6,0 km/h (2 Bft)
07.06.2012 19:40 21,3 C 63 % 0,0 l/m 3,2 km/h (1 Bft) W-NW 292 14,0 C 22,1 C 4,0 km/h (1 Bft)
07.06.2012 19:45 21,0 C 64 % 0,0 l/m 3,1 km/h (1 Bft) NW 315 13,9 C 21,9 C 2,7 km/h (1 Bft)
07.06.2012 19:50 20,6 C 65 % 0,0 l/m 1,4 km/h (1 Bft) NO 45 13,8 C 21,4 C 0,0 km/h (0 Bft)
07.06.2012 19:55 20,4 C 66 % 0,0 l/m 1,1 km/h (1 Bft) N-NO 22 13,8 C 21,2 C 2,1 km/h (1 Bft)
07.06.2012 20:00 20,3 C 65 % 0,0 l/m 1,0 km/h (0 Bft) N-NO 22 13,5 C 20,9 C 0,0 km/h (0 Bft)
07.06.2012 20:05 20,1 C 66 % 0,0 l/m 0,8 km/h (0 Bft) N 360 13,5 C 20,7 C 2,3 km/h (1 Bft)
07.06.2012 20:10 19,8 C 67 % 0,0 l/m 0,3 km/h (0 Bft) SO 135 13,5 C 20,5 C 0,0 km/h (0 Bft)
07.06.2012 20:15 19,6 C 68 % 0,0 l/m 0,2 km/h (0 Bft) N-NO 22 13,5 C 20,3 C 0,0 km/h (0 Bft)
07.06.2012 20:20 19,5 C 69 % 0,0 l/m 0,0 km/h (0 Bft) N-NO 22 13,7 C 19,8 C 0,0 km/h (0 Bft)
07.06.2012 20:25 19,5 C 69 % 0,0 l/m 0,0 km/h (0 Bft) NO 45 13,7 C 19,6 C 0,0 km/h (0 Bft)
07.06.2012 20:30 19,3 C 70 % 0,0 l/m 0,5 km/h (0 Bft) N-NO 22 13,7 C 19,5 C 0,0 km/h (0 Bft)
07.06.2012 20:35 19,2 C 70 % 0,0 l/m 0,5 km/h (0 Bft) N 360 13,6 C 19,5 C 0,0 km/h (0 Bft)
07.06.2012 20:40 18,8 C 70 % 0,0 l/m 0,2 km/h (0 Bft) NW 315 13,2 C 19,3 C 0,0 km/h (0 Bft)
07.06.2012 20:45 18,5 C 71 % 0,0 l/m 0,2 km/h (0 Bft) NO 45 13,1 C 19,0 C 0,0 km/h (0 Bft)
07.06.2012 20:50 18,3 C 72 % 0,0 l/m 0,0 km/h (0 Bft) S-SO 157 13,2 C 18,8 C 0,0 km/h (0 Bft)
07.06.2012 20:55 18,2 C 73 % 0,0 l/m 0,0 km/h (0 Bft) N-NO 22 13,3 C 18,6 C 0,0 km/h (0 Bft)
07.06.2012 21:00 18,2 C 74 % 0,0 l/m 0,2 km/h (0 Bft) N-NO 22 13,5 C 18,4 C 0,0 km/h (0 Bft)
07.06.2012 21:05 18,2 C 75 % 0,0 l/m 0,3 km/h (0 Bft) N 360 13,7 C 18,3 C 0,0 km/h (0 Bft)
07.06.2012 21:10 17,9 C 76 % 0,0 l/m 0,3 km/h (0 Bft) N-NO 22 13,6 C 18,2 C 0,0 km/h (0 Bft)
07.06.2012 21:15 18,1 C 76 % 0,0 l/m 0,2 km/h (0 Bft) N-NO 22 13,8 C 18,1 C 0,0 km/h (0 Bft)
07.06.2012 21:20 18,0 C 76 % 0,0 l/m 0,3 km/h (0 Bft) NO 45 13,7 C 18,3 C 2,1 km/h (1 Bft)
07.06.2012 21:25 17,9 C 77 % 0,0 l/m 0,8 km/h (0 Bft) S 180 13,8 C 18,3 C 0,0 km/h (0 Bft)
07.06.2012 21:30 17,7 C 78 % 0,0 l/m 2,3 km/h (1 Bft) SO 135 13,8 C 18,1 C 4,5 km/h (1 Bft)
07.06.2012 21:35 18,1 C 79 % 0,0 l/m 4,2 km/h (1 Bft) SO 135 14,4 C 18,0 C 14,3 km/h (3 Bft)
07.06.2012 21:40 16,8 C 85 % 2,1 l/m 11,9 km/h (2 Bft) O-SO 112 14,3 C 14,7 C 29,9 km/h (5 Bft)
07.06.2012 21:45 16,1 C 86 % 1,4 l/m 15,1 km/h (3 Bft) SO 135 13,8 C 12,1 C 14,6 km/h (3 Bft)
07.06.2012 21:50 15,7 C 88 % 0,0 l/m 12,7 km/h (3 Bft) O-NO 67 13,7 C 12,2 C 6,8 km/h (2 Bft)
07.06.2012 21:55 15,6 C 88 % 0,0 l/m 10,0 km/h (2 Bft) NO 45 13,6 C 13,4 C 6,3 km/h (2 Bft)
07.06.2012 22:00 15,5 C 89 % 0,0 l/m 7,1 km/h (2 Bft) O-SO 112 13,7 C 15,1 C 16,7 km/h (3 Bft)
07.06.2012 22:05 15,4 C 89 % 0,0 l/m 7,1 km/h (2 Bft) O-SO 112 13,6 C 15,0 C 13,2 km/h (3 Bft)
07.06.2012 22:10 15,4 C 90 % 0,0 l/m 10,1 km/h (2 Bft) O-SO 112 13,8 C 13,2 C 19,5 km/h (3 Bft)
07.06.2012 22:15 15,5 C 90 % 0,0 l/m 10,5 km/h (2 Bft) O-SO 112 13,9 C 13,0 C 6,8 km/h (2 Bft)
07.06.2012 22:20 15,6 C 91 % 0,7 l/m 10,0 km/h (2 Bft) O-SO 112 14,1 C 13,3 C 14,8 km/h (3 Bft)
07.06.2012 22:25 15,6 C 91 % 0,0 l/m 9,7 km/h (2 Bft) SO 135 14,1 C 13,5 C 10,8 km/h (2 Bft)
07.06.2012 22:30 15,7 C 91 % 0,0 l/m 9,8 km/h (2 Bft) SO 135 14,2 C 13,4 C 7,6 km/h (2 Bft)
07.06.2012 22:35 15,6 C 92 % 0,7 l/m 9,0 km/h (2 Bft) N-NO 22 14,3 C 13,9 C 18,8 km/h (3 Bft)
07.06.2012 22:40 15,6 C 92 % 0,0 l/m 9,0 km/h (2 Bft) SO 135 14,3 C 13,8 C 11,6 km/h (2 Bft)
07.06.2012 22:45 15,5 C 92 % 0,7 l/m 10,1 km/h (2 Bft) SO 135 14,2 C 13,2 C 12,4 km/h (3 Bft)
07.06.2012 22:50 15,4 C 92 % 0,7 l/m 10,3 km/h (2 Bft) O-SO 112 14,1 C 12,9 C 17,9 km/h (3 Bft)
07.06.2012 22:55 15,2 C 92 % 0,0 l/m 10,9 km/h (2 Bft) SO 135 13,9 C 12,4 C 11,6 km/h (2 Bft)
07.06.2012 23:00 14,9 C 92 % 0,7 l/m 11,3 km/h (2 Bft) SO 135 13,6 C 11,8 C 9,2 km/h (2 Bft)
07.06.2012 23:05 14,8 C 92 % 0,0 l/m 9,2 km/h (2 Bft) S-SO 157 13,5 C 12,8 C 11,9 km/h (2 Bft)
07.06.2012 23:10 14,7 C 92 % 0,0 l/m 7,4 km/h (2 Bft) NO 45 13,4 C 14,0 C 3,2 km/h (1 Bft)
07.06.2012 23:15 14,6 C 92 % 0,7 l/m 6,9 km/h (2 Bft) O-SO 112 13,3 C 14,3 C 13,7 km/h (3 Bft)
07.06.2012 23:20 14,5 C 92 % 0,0 l/m 5,6 km/h (1 Bft) O-SO 112 13,2 C 14,4 C 6,4 km/h (2 Bft)
07.06.2012 23:25 14,4 C 92 % 0,0 l/m 6,3 km/h (2 Bft) O-NO 67 13,1 C 14,4 C 10,6 km/h (2 Bft)
07.06.2012 23:30 14,2 C 92 % 0,0 l/m 6,4 km/h (2 Bft) W-SW 247 12,9 C 14,2 C 2,3 km/h (1 Bft)
07.06.2012 23:35 14,1 C 92 % 0,0 l/m 5,1 km/h (1 Bft) O-SO 112 12,8 C 14,1 C 0,0 km/h (0 Bft)
07.06.2012 23:40 14,1 C 92 % 0,0 l/m 3,4 km/h (1 Bft) O-SO 112 12,8 C 14,1 C 15,3 km/h (3 Bft)
07.06.2012 23:45 14,1 C 92 % 0,0 l/m 3,7 km/h (1 Bft) N-NO 22 12,8 C 14,1 C 1,6 km/h (1 Bft)
07.06.2012 23:50 14,1 C 92 % 0,0 l/m 4,0 km/h (1 Bft) O-SO 112 12,8 C 14,1 C 5,0 km/h (1 Bft)
07.06.2012 23:55 14,0 C 92 % 0,0 l/m 3,7 km/h (1 Bft) O-NO 67 12,7 C 14,1 C 2,4 km/h (1 Bft)
_ Min-Zeit 02:20 12:55 - 20:55 - - 02:20 03:10 23:35
Minimum _ 10,2 C 44 % - 0,0 km/h (0 Bft) - - 8,3 C 10,3 C 0,0 km/h (0 Bft)
_ Max-Zeit 16:15 23:55 21:40 21:45 - - 08:40 17:30 21:40
Maximum _ 25,4 C 92 % 2,1 l/m 15,1 km/h
SO (3 Bft)
- - 15,0 C 27,8 C 29,9 km/h
O-SO (5 Bft)
Durchschnitt _ 17,9 C 71 % #8,2 l/m 2,9 km/h (1 Bft) W-NW - 12,1 C 18,8 C 3,9 km/h (1 Bft)